sensor_id;sensor_type;location;lat;lon;timestamp;P1;durP1;ratioP1;P2;durP2;ratioP2
16472;SDS011;8347;52.486;13.432;2023-04-24T00:04:59;5.18;;;4.38;;
16472;SDS011;8347;52.486;13.432;2023-04-24T00:07:48;6.18;;;4.82;;
16472;SDS011;8347;52.486;13.432;2023-04-24T00:10:38;6.45;;;5.78;;
16472;SDS011;8347;52.486;13.432;2023-04-24T00:13:24;6.00;;;4.85;;
16472;SDS011;8347;52.486;13.432;2023-04-24T00:16:11;9.60;;;5.07;;
16472;SDS011;8347;52.486;13.432;2023-04-24T00:18:58;6.57;;;5.18;;
16472;SDS011;8347;52.486;13.432;2023-04-24T00:21:44;4.78;;;4.28;;
16472;SDS011;8347;52.486;13.432;2023-04-24T00:24:30;4.43;;;4.03;;
16472;SDS011;8347;52.486;13.432;2023-04-24T00:27:17;6.10;;;4.50;;
16472;SDS011;8347;52.486;13.432;2023-04-24T00:30:04;4.88;;;4.15;;
16472;SDS011;8347;52.486;13.432;2023-04-24T00:32:51;6.03;;;4.57;;
16472;SDS011;8347;52.486;13.432;2023-04-24T00:35:37;5.03;;;4.38;;
16472;SDS011;8347;52.486;13.432;2023-04-24T00:38:24;5.13;;;4.00;;
16472;SDS011;8347;52.486;13.432;2023-04-24T00:41:10;5.40;;;4.53;;
16472;SDS011;8347;52.486;13.432;2023-04-24T00:43:57;5.13;;;4.35;;
16472;SDS011;8347;52.486;13.432;2023-04-24T00:46:43;7.18;;;4.93;;
16472;SDS011;8347;52.486;13.432;2023-04-24T00:49:30;4.95;;;4.15;;
16472;SDS011;8347;52.486;13.432;2023-04-24T00:52:17;5.13;;;4.22;;
16472;SDS011;8347;52.486;13.432;2023-04-24T00:55:03;5.03;;;4.25;;
16472;SDS011;8347;52.486;13.432;2023-04-24T00:57:51;5.75;;;4.90;;
16472;SDS011;8347;52.486;13.432;2023-04-24T01:00:38;5.38;;;4.32;;
16472;SDS011;8347;52.486;13.432;2023-04-24T01:03:25;6.13;;;5.32;;
16472;SDS011;8347;52.486;13.432;2023-04-24T01:06:14;5.38;;;4.72;;
16472;SDS011;8347;52.486;13.432;2023-04-24T01:09:01;5.63;;;5.03;;
16472;SDS011;8347;52.486;13.432;2023-04-24T01:11:49;7.15;;;5.20;;
16472;SDS011;8347;52.486;13.432;2023-04-24T01:14:36;5.28;;;4.40;;
16472;SDS011;8347;52.486;13.432;2023-04-24T01:17:24;6.55;;;4.78;;
16472;SDS011;8347;52.486;13.432;2023-04-24T01:20:10;5.35;;;4.82;;
16472;SDS011;8347;52.486;13.432;2023-04-24T01:22:57;5.03;;;4.53;;
16472;SDS011;8347;52.486;13.432;2023-04-24T01:25:44;7.28;;;4.95;;
16472;SDS011;8347;52.486;13.432;2023-04-24T01:28:31;6.15;;;4.50;;
16472;SDS011;8347;52.486;13.432;2023-04-24T01:31:18;5.88;;;5.28;;
16472;SDS011;8347;52.486;13.432;2023-04-24T01:34:04;5.38;;;4.68;;
16472;SDS011;8347;52.486;13.432;2023-04-24T01:36:52;5.38;;;4.85;;
16472;SDS011;8347;52.486;13.432;2023-04-24T01:39:39;8.00;;;5.25;;
16472;SDS011;8347;52.486;13.432;2023-04-24T01:42:25;6.85;;;5.43;;
16472;SDS011;8347;52.486;13.432;2023-04-24T01:45:12;5.53;;;4.90;;
16472;SDS011;8347;52.486;13.432;2023-04-24T01:47:59;6.93;;;4.85;;
16472;SDS011;8347;52.486;13.432;2023-04-24T01:50:47;6.13;;;5.45;;
16472;SDS011;8347;52.486;13.432;2023-04-24T01:53:33;7.03;;;5.13;;
16472;SDS011;8347;52.486;13.432;2023-04-24T01:56:22;6.75;;;6.05;;
16472;SDS011;8347;52.486;13.432;2023-04-24T01:59:10;7.03;;;4.85;;
16472;SDS011;8347;52.486;13.432;2023-04-24T02:01:56;6.32;;;4.95;;
16472;SDS011;8347;52.486;13.432;2023-04-24T02:04:43;7.50;;;5.65;;
16472;SDS011;8347;52.486;13.432;2023-04-24T02:07:29;6.03;;;5.05;;
16472;SDS011;8347;52.486;13.432;2023-04-24T02:10:15;6.40;;;5.55;;
16472;SDS011;8347;52.486;13.432;2023-04-24T02:13:02;5.82;;;5.13;;
16472;SDS011;8347;52.486;13.432;2023-04-24T02:15:49;5.80;;;5.20;;
16472;SDS011;8347;52.486;13.432;2023-04-24T02:18:35;5.40;;;4.85;;
16472;SDS011;8347;52.486;13.432;2023-04-24T02:21:21;7.07;;;5.38;;
16472;SDS011;8347;52.486;13.432;2023-04-24T02:24:08;5.00;;;4.57;;
16472;SDS011;8347;52.486;13.432;2023-04-24T02:26:54;6.72;;;5.43;;
16472;SDS011;8347;52.486;13.432;2023-04-24T02:29:41;5.88;;;5.25;;
16472;SDS011;8347;52.486;13.432;2023-04-24T02:32:28;7.57;;;5.35;;
16472;SDS011;8347;52.486;13.432;2023-04-24T02:35:14;8.48;;;6.25;;
16472;SDS011;8347;52.486;13.432;2023-04-24T02:38:00;7.40;;;5.90;;
16472;SDS011;8347;52.486;13.432;2023-04-24T02:40:47;6.00;;;5.20;;
16472;SDS011;8347;52.486;13.432;2023-04-24T02:43:33;7.57;;;6.10;;
16472;SDS011;8347;52.486;13.432;2023-04-24T02:46:20;6.63;;;5.60;;
16472;SDS011;8347;52.486;13.432;2023-04-24T02:49:06;7.00;;;5.70;;
16472;SDS011;8347;52.486;13.432;2023-04-24T02:51:53;6.90;;;5.95;;
16472;SDS011;8347;52.486;13.432;2023-04-24T02:54:40;6.55;;;5.68;;
16472;SDS011;8347;52.486;13.432;2023-04-24T02:57:26;7.75;;;5.75;;
16472;SDS011;8347;52.486;13.432;2023-04-24T03:00:12;6.45;;;5.38;;
16472;SDS011;8347;52.486;13.432;2023-04-24T03:02:59;6.75;;;6.03;;
16472;SDS011;8347;52.486;13.432;2023-04-24T03:05:45;7.13;;;5.03;;
16472;SDS011;8347;52.486;13.432;2023-04-24T03:08:32;6.40;;;5.80;;
16472;SDS011;8347;52.486;13.432;2023-04-24T03:11:19;5.60;;;4.97;;
16472;SDS011;8347;52.486;13.432;2023-04-24T03:14:05;7.63;;;5.85;;
16472;SDS011;8347;52.486;13.432;2023-04-24T03:16:52;7.75;;;5.80;;
16472;SDS011;8347;52.486;13.432;2023-04-24T03:19:39;8.32;;;5.90;;
16472;SDS011;8347;52.486;13.432;2023-04-24T03:22:29;5.90;;;5.28;;
16472;SDS011;8347;52.486;13.432;2023-04-24T03:25:18;8.23;;;5.40;;
16472;SDS011;8347;52.486;13.432;2023-04-24T03:28:05;7.30;;;5.50;;
16472;SDS011;8347;52.486;13.432;2023-04-24T03:31:02;8.07;;;6.68;;
16472;SDS011;8347;52.486;13.432;2023-04-24T03:33:52;7.18;;;6.47;;
16472;SDS011;8347;52.486;13.432;2023-04-24T03:36:39;7.53;;;5.75;;
16472;SDS011;8347;52.486;13.432;2023-04-24T03:39:27;6.90;;;5.25;;
16472;SDS011;8347;52.486;13.432;2023-04-24T03:42:15;7.65;;;5.75;;
16472;SDS011;8347;52.486;13.432;2023-04-24T03:45:10;6.63;;;5.55;;
16472;SDS011;8347;52.486;13.432;2023-04-24T03:47:59;6.43;;;5.68;;
16472;SDS011;8347;52.486;13.432;2023-04-24T03:50:46;10.73;;;7.38;;
16472;SDS011;8347;52.486;13.432;2023-04-24T03:53:32;7.93;;;5.50;;
16472;SDS011;8347;52.486;13.432;2023-04-24T03:56:19;6.60;;;5.72;;
16472;SDS011;8347;52.486;13.432;2023-04-24T03:59:06;6.57;;;5.32;;
16472;SDS011;8347;52.486;13.432;2023-04-24T04:01:54;6.45;;;5.45;;
16472;SDS011;8347;52.486;13.432;2023-04-24T04:04:40;6.20;;;5.25;;
16472;SDS011;8347;52.486;13.432;2023-04-24T04:07:27;7.20;;;5.72;;
16472;SDS011;8347;52.486;13.432;2023-04-24T04:10:15;6.90;;;5.60;;
16472;SDS011;8347;52.486;13.432;2023-04-24T04:13:03;10.50;;;5.90;;
16472;SDS011;8347;52.486;13.432;2023-04-24T04:15:49;6.20;;;4.80;;
16472;SDS011;8347;52.486;13.432;2023-04-24T04:18:36;6.47;;;5.78;;
16472;SDS011;8347;52.486;13.432;2023-04-24T04:21:24;26.92;;;9.45;;
16472;SDS011;8347;52.486;13.432;2023-04-24T04:24:17;9.98;;;6.55;;
16472;SDS011;8347;52.486;13.432;2023-04-24T04:27:05;7.00;;;6.30;;
16472;SDS011;8347;52.486;13.432;2023-04-24T04:29:58;8.40;;;6.43;;
16472;SDS011;8347;52.486;13.432;2023-04-24T04:32:51;7.20;;;6.50;;
16472;SDS011;8347;52.486;13.432;2023-04-24T04:35:37;5.95;;;5.35;;
16472;SDS011;8347;52.486;13.432;2023-04-24T04:38:24;47.03;;;10.25;;
16472;SDS011;8347;52.486;13.432;2023-04-24T04:41:26;36.42;;;12.05;;
16472;SDS011;8347;52.486;13.432;2023-04-24T04:44:13;9.63;;;6.05;;
16472;SDS011;8347;52.486;13.432;2023-04-24T04:47:01;25.52;;;8.57;;
16472;SDS011;8347;52.486;13.432;2023-04-24T04:49:52;7.57;;;5.47;;
16472;SDS011;8347;52.486;13.432;2023-04-24T04:52:42;8.32;;;5.63;;
16472;SDS011;8347;52.486;13.432;2023-04-24T04:55:47;6.18;;;5.53;;
16472;SDS011;8347;52.486;13.432;2023-04-24T04:58:35;7.30;;;5.30;;
16472;SDS011;8347;52.486;13.432;2023-04-24T05:01:23;5.88;;;5.35;;
16472;SDS011;8347;52.486;13.432;2023-04-24T05:04:10;7.95;;;5.25;;
16472;SDS011;8347;52.486;13.432;2023-04-24T05:06:57;6.97;;;5.82;;
16472;SDS011;8347;52.486;13.432;2023-04-24T05:09:46;6.05;;;4.90;;
16472;SDS011;8347;52.486;13.432;2023-04-24T05:12:33;6.20;;;4.78;;
16472;SDS011;8347;52.486;13.432;2023-04-24T05:15:22;7.88;;;5.25;;
16472;SDS011;8347;52.486;13.432;2023-04-24T05:18:08;6.53;;;5.00;;
16472;SDS011;8347;52.486;13.432;2023-04-24T05:20:55;8.43;;;4.80;;
16472;SDS011;8347;52.486;13.432;2023-04-24T05:23:42;5.70;;;4.63;;
16472;SDS011;8347;52.486;13.432;2023-04-24T05:26:30;5.60;;;4.70;;
16472;SDS011;8347;52.486;13.432;2023-04-24T05:29:18;6.95;;;4.97;;
16472;SDS011;8347;52.486;13.432;2023-04-24T05:32:06;5.93;;;4.50;;
16472;SDS011;8347;52.486;13.432;2023-04-24T05:34:52;7.78;;;3.92;;
16472;SDS011;8347;52.486;13.432;2023-04-24T05:37:39;5.13;;;4.00;;
16472;SDS011;8347;52.486;13.432;2023-04-24T05:40:26;4.85;;;4.35;;
16472;SDS011;8347;52.486;13.432;2023-04-24T05:43:13;4.47;;;3.45;;
16472;SDS011;8347;52.486;13.432;2023-04-24T05:45:59;7.07;;;4.00;;
16472;SDS011;8347;52.486;13.432;2023-04-24T05:48:46;4.35;;;3.70;;
16472;SDS011;8347;52.486;13.432;2023-04-24T05:51:33;5.55;;;3.10;;
16472;SDS011;8347;52.486;13.432;2023-04-24T05:54:19;5.30;;;3.95;;
16472;SDS011;8347;52.486;13.432;2023-04-24T05:57:06;3.70;;;2.97;;
16472;SDS011;8347;52.486;13.432;2023-04-24T06:00:12;3.30;;;3.00;;
16472;SDS011;8347;52.486;13.432;2023-04-24T06:03:00;5.93;;;3.42;;
16472;SDS011;8347;52.486;13.432;2023-04-24T06:05:49;3.45;;;2.40;;
16472;SDS011;8347;52.486;13.432;2023-04-24T06:08:35;3.80;;;1.95;;
16472;SDS011;8347;52.486;13.432;2023-04-24T06:11:22;2.83;;;1.98;;
16472;SDS011;8347;52.486;13.432;2023-04-24T06:14:08;3.33;;;2.45;;
16472;SDS011;8347;52.486;13.432;2023-04-24T06:16:58;3.92;;;2.22;;
16472;SDS011;8347;52.486;13.432;2023-04-24T06:19:52;4.88;;;3.35;;
16472;SDS011;8347;52.486;13.432;2023-04-24T06:22:40;39.05;;;9.00;;
16472;SDS011;8347;52.486;13.432;2023-04-24T06:25:26;4.30;;;1.90;;
16472;SDS011;8347;52.486;13.432;2023-04-24T06:28:13;2.70;;;1.88;;
16472;SDS011;8347;52.486;13.432;2023-04-24T06:31:00;3.47;;;1.95;;
16472;SDS011;8347;52.486;13.432;2023-04-24T06:33:47;2.25;;;1.80;;
16472;SDS011;8347;52.486;13.432;2023-04-24T06:36:35;3.22;;;1.83;;
16472;SDS011;8347;52.486;13.432;2023-04-24T06:39:21;5.28;;;1.70;;
16472;SDS011;8347;52.486;13.432;2023-04-24T06:42:08;2.53;;;1.90;;
16472;SDS011;8347;52.486;13.432;2023-04-24T06:44:55;2.58;;;1.60;;
16472;SDS011;8347;52.486;13.432;2023-04-24T06:47:41;3.80;;;1.92;;
16472;SDS011;8347;52.486;13.432;2023-04-24T06:50:28;3.03;;;1.80;;
16472;SDS011;8347;52.486;13.432;2023-04-24T06:53:15;1.60;;;1.40;;
16472;SDS011;8347;52.486;13.432;2023-04-24T06:56:01;2.47;;;1.40;;
16472;SDS011;8347;52.486;13.432;2023-04-24T06:58:48;2.13;;;1.50;;
16472;SDS011;8347;52.486;13.432;2023-04-24T07:01:35;3.95;;;1.40;;
16472;SDS011;8347;52.486;13.432;2023-04-24T07:04:22;1.80;;;1.20;;
16472;SDS011;8347;52.486;13.432;2023-04-24T07:07:11;1.65;;;1.35;;
16472;SDS011;8347;52.486;13.432;2023-04-24T07:09:59;2.45;;;1.10;;
16472;SDS011;8347;52.486;13.432;2023-04-24T07:12:46;2.78;;;1.20;;
16472;SDS011;8347;52.486;13.432;2023-04-24T07:15:33;2.10;;;1.27;;
16472;SDS011;8347;52.486;13.432;2023-04-24T07:18:20;3.70;;;1.20;;
16472;SDS011;8347;52.486;13.432;2023-04-24T07:21:06;5.88;;;2.30;;
16472;SDS011;8347;52.486;13.432;2023-04-24T07:23:53;2.45;;;1.30;;
16472;SDS011;8347;52.486;13.432;2023-04-24T07:26:40;6.00;;;2.10;;
16472;SDS011;8347;52.486;13.432;2023-04-24T07:29:26;1.58;;;1.27;;
16472;SDS011;8347;52.486;13.432;2023-04-24T07:32:13;1.20;;;0.93;;
16472;SDS011;8347;52.486;13.432;2023-04-24T07:35:00;1.65;;;1.13;;
16472;SDS011;8347;52.486;13.432;2023-04-24T07:37:46;1.95;;;0.82;;
16472;SDS011;8347;52.486;13.432;2023-04-24T07:40:33;2.65;;;0.88;;
16472;SDS011;8347;52.486;13.432;2023-04-24T07:43:20;1.60;;;1.35;;
16472;SDS011;8347;52.486;13.432;2023-04-24T07:46:07;9.85;;;3.08;;
16472;SDS011;8347;52.486;13.432;2023-04-24T07:48:55;1.77;;;1.05;;
16472;SDS011;8347;52.486;13.432;2023-04-24T07:51:41;1.92;;;1.33;;
16472;SDS011;8347;52.486;13.432;2023-04-24T07:54:28;2.50;;;1.50;;
16472;SDS011;8347;52.486;13.432;2023-04-24T07:57:14;2.63;;;1.27;;
16472;SDS011;8347;52.486;13.432;2023-04-24T08:00:02;3.33;;;1.50;;
16472;SDS011;8347;52.486;13.432;2023-04-24T08:02:57;2.35;;;1.50;;
16472;SDS011;8347;52.486;13.432;2023-04-24T08:05:43;3.08;;;1.52;;
16472;SDS011;8347;52.486;13.432;2023-04-24T08:08:30;1.55;;;1.20;;
16472;SDS011;8347;52.486;13.432;2023-04-24T08:11:16;1.42;;;1.33;;
16472;SDS011;8347;52.486;13.432;2023-04-24T08:14:03;0.88;;;0.80;;
16472;SDS011;8347;52.486;13.432;2023-04-24T08:16:49;1.40;;;0.95;;
16472;SDS011;8347;52.486;13.432;2023-04-24T08:19:35;2.85;;;2.03;;
16472;SDS011;8347;52.486;13.432;2023-04-24T08:22:22;2.47;;;1.20;;
16472;SDS011;8347;52.486;13.432;2023-04-24T08:25:09;1.65;;;0.90;;
16472;SDS011;8347;52.486;13.432;2023-04-24T08:27:56;1.63;;;1.10;;
16472;SDS011;8347;52.486;13.432;2023-04-24T08:30:42;1.17;;;1.08;;
16472;SDS011;8347;52.486;13.432;2023-04-24T08:33:28;1.85;;;1.58;;
16472;SDS011;8347;52.486;13.432;2023-04-24T08:36:19;1.77;;;0.80;;
16472;SDS011;8347;52.486;13.432;2023-04-24T08:39:06;0.75;;;0.70;;
16472;SDS011;8347;52.486;13.432;2023-04-24T08:41:53;3.85;;;2.00;;
16472;SDS011;8347;52.486;13.432;2023-04-24T08:44:39;1.60;;;1.40;;
16472;SDS011;8347;52.486;13.432;2023-04-24T08:47:26;1.35;;;1.25;;
16472;SDS011;8347;52.486;13.432;2023-04-24T08:50:14;1.13;;;0.70;;
16472;SDS011;8347;52.486;13.432;2023-04-24T08:53:01;1.10;;;0.82;;
16472;SDS011;8347;52.486;13.432;2023-04-24T08:55:48;1.20;;;0.90;;
16472;SDS011;8347;52.486;13.432;2023-04-24T08:58:35;0.88;;;0.85;;
16472;SDS011;8347;52.486;13.432;2023-04-24T09:01:22;1.23;;;1.10;;
16472;SDS011;8347;52.486;13.432;2023-04-24T09:04:10;2.00;;;1.25;;
16472;SDS011;8347;52.486;13.432;2023-04-24T09:06:58;1.02;;;0.75;;
16472;SDS011;8347;52.486;13.432;2023-04-24T09:09:45;0.55;;;0.55;;
16472;SDS011;8347;52.486;13.432;2023-04-24T09:12:33;3.40;;;1.70;;
16472;SDS011;8347;52.486;13.432;2023-04-24T09:15:20;1.83;;;1.33;;
16472;SDS011;8347;52.486;13.432;2023-04-24T09:18:07;1.73;;;1.30;;
16472;SDS011;8347;52.486;13.432;2023-04-24T09:20:57;2.47;;;1.20;;
16472;SDS011;8347;52.486;13.432;2023-04-24T09:24:02;3.55;;;1.40;;
16472;SDS011;8347;52.486;13.432;2023-04-24T09:26:57;3.38;;;1.27;;
16472;SDS011;8347;52.486;13.432;2023-04-24T09:29:53;1.65;;;1.05;;
16472;SDS011;8347;52.486;13.432;2023-04-24T09:32:40;1.35;;;0.80;;
16472;SDS011;8347;52.486;13.432;2023-04-24T09:35:27;1.83;;;0.90;;
16472;SDS011;8347;52.486;13.432;2023-04-24T09:38:13;2.28;;;0.93;;
16472;SDS011;8347;52.486;13.432;2023-04-24T09:41:00;2.38;;;1.20;;
16472;SDS011;8347;52.486;13.432;2023-04-24T09:43:49;1.60;;;1.20;;
16472;SDS011;8347;52.486;13.432;2023-04-24T09:46:35;1.35;;;0.80;;
16472;SDS011;8347;52.486;13.432;2023-04-24T09:49:23;2.47;;;1.38;;
16472;SDS011;8347;52.486;13.432;2023-04-24T09:52:10;2.67;;;1.50;;
16472;SDS011;8347;52.486;13.432;2023-04-24T09:54:57;4.00;;;2.22;;
16472;SDS011;8347;52.486;13.432;2023-04-24T09:58:17;2.15;;;1.00;;
16472;SDS011;8347;52.486;13.432;2023-04-24T10:00:57;3.38;;;1.00;;
16472;SDS011;8347;52.486;13.432;2023-04-24T10:03:43;1.70;;;1.00;;
16472;SDS011;8347;52.486;13.432;2023-04-24T10:06:35;1.73;;;1.10;;
16472;SDS011;8347;52.486;13.432;2023-04-24T10:09:25;2.70;;;1.20;;
16472;SDS011;8347;52.486;13.432;2023-04-24T10:12:12;2.75;;;1.23;;
16472;SDS011;8347;52.486;13.432;2023-04-24T10:15:00;1.73;;;1.38;;
16472;SDS011;8347;52.486;13.432;2023-04-24T10:17:50;3.22;;;1.42;;
16472;SDS011;8347;52.486;13.432;2023-04-24T10:20:40;1.33;;;1.20;;
16472;SDS011;8347;52.486;13.432;2023-04-24T10:23:27;4.72;;;2.20;;
16472;SDS011;8347;52.486;13.432;2023-04-24T10:26:14;5.15;;;2.92;;
16472;SDS011;8347;52.486;13.432;2023-04-24T10:29:03;4.75;;;2.00;;
16472;SDS011;8347;52.486;13.432;2023-04-24T10:31:55;4.20;;;1.92;;
16472;SDS011;8347;52.486;13.432;2023-04-24T10:34:42;3.88;;;2.60;;
16472;SDS011;8347;52.486;13.432;2023-04-24T10:37:28;4.32;;;1.58;;
16472;SDS011;8347;52.486;13.432;2023-04-24T10:40:30;1.80;;;1.05;;
16472;SDS011;8347;52.486;13.432;2023-04-24T10:43:17;2.85;;;1.00;;
16472;SDS011;8347;52.486;13.432;2023-04-24T10:46:05;4.93;;;1.63;;
16472;SDS011;8347;52.486;13.432;2023-04-24T10:48:53;2.80;;;1.67;;
16472;SDS011;8347;52.486;13.432;2023-04-24T10:51:44;2.28;;;2.00;;
16472;SDS011;8347;52.486;13.432;2023-04-24T11:00:09;1.92;;;1.50;;
16472;SDS011;8347;52.486;13.432;2023-04-24T11:02:59;2.05;;;1.25;;
16472;SDS011;8347;52.486;13.432;2023-04-24T11:08:39;2.55;;;1.90;;
16472;SDS011;8347;52.486;13.432;2023-04-24T11:11:28;2.90;;;1.60;;
16472;SDS011;8347;52.486;13.432;2023-04-24T11:14:15;2.60;;;1.73;;
16472;SDS011;8347;52.486;13.432;2023-04-24T11:17:02;4.07;;;2.13;;
16472;SDS011;8347;52.486;13.432;2023-04-24T11:19:50;6.50;;;2.95;;
16472;SDS011;8347;52.486;13.432;2023-04-24T11:22:38;9.90;;;4.10;;
16472;SDS011;8347;52.486;13.432;2023-04-24T11:25:25;3.97;;;1.58;;
16472;SDS011;8347;52.486;13.432;2023-04-24T11:28:16;2.25;;;1.17;;
16472;SDS011;8347;52.486;13.432;2023-04-24T11:34:25;2.50;;;1.63;;
16472;SDS011;8347;52.486;13.432;2023-04-24T11:37:12;4.30;;;1.75;;
16472;SDS011;8347;52.486;13.432;2023-04-24T11:39:59;3.70;;;1.88;;
16472;SDS011;8347;52.486;13.432;2023-04-24T11:42:46;4.63;;;1.90;;
16472;SDS011;8347;52.486;13.432;2023-04-24T11:45:33;2.83;;;1.65;;
16472;SDS011;8347;52.486;13.432;2023-04-24T11:48:21;3.28;;;1.83;;
16472;SDS011;8347;52.486;13.432;2023-04-24T11:51:08;3.45;;;1.85;;
16472;SDS011;8347;52.486;13.432;2023-04-24T11:53:55;3.20;;;1.85;;
16472;SDS011;8347;52.486;13.432;2023-04-24T11:56:46;5.72;;;2.47;;
16472;SDS011;8347;52.486;13.432;2023-04-24T11:59:36;4.18;;;2.15;;
16472;SDS011;8347;52.486;13.432;2023-04-24T12:02:23;3.60;;;2.10;;
16472;SDS011;8347;52.486;13.432;2023-04-24T12:05:21;3.75;;;2.22;;
16472;SDS011;8347;52.486;13.432;2023-04-24T12:08:08;4.65;;;1.83;;
16472;SDS011;8347;52.486;13.432;2023-04-24T12:10:54;6.35;;;3.08;;
16472;SDS011;8347;52.486;13.432;2023-04-24T12:13:41;3.95;;;2.03;;
16472;SDS011;8347;52.486;13.432;2023-04-24T12:16:27;3.95;;;2.05;;
16472;SDS011;8347;52.486;13.432;2023-04-24T12:19:18;2.30;;;1.80;;
16472;SDS011;8347;52.486;13.432;2023-04-24T12:22:06;4.72;;;2.17;;
16472;SDS011;8347;52.486;13.432;2023-04-24T12:25:02;2.75;;;2.00;;
16472;SDS011;8347;52.486;13.432;2023-04-24T12:27:55;3.90;;;1.90;;
16472;SDS011;8347;52.486;13.432;2023-04-24T12:30:42;2.97;;;1.65;;
16472;SDS011;8347;52.486;13.432;2023-04-24T12:33:34;2.17;;;1.83;;
16472;SDS011;8347;52.486;13.432;2023-04-24T12:36:21;3.08;;;1.55;;
16472;SDS011;8347;52.486;13.432;2023-04-24T12:39:14;4.28;;;2.35;;
16472;SDS011;8347;52.486;13.432;2023-04-24T12:42:01;1.67;;;1.30;;
16472;SDS011;8347;52.486;13.432;2023-04-24T12:44:47;1.95;;;1.60;;
16472;SDS011;8347;52.486;13.432;2023-04-24T12:47:34;14.55;;;3.22;;
16472;SDS011;8347;52.486;13.432;2023-04-24T12:50:22;5.13;;;1.60;;
16472;SDS011;8347;52.486;13.432;2023-04-24T12:53:08;3.72;;;2.05;;
16472;SDS011;8347;52.486;13.432;2023-04-24T12:55:55;3.55;;;2.22;;
16472;SDS011;8347;52.486;13.432;2023-04-24T12:58:43;5.07;;;2.45;;
16472;SDS011;8347;52.486;13.432;2023-04-24T13:01:30;2.63;;;1.52;;
16472;SDS011;8347;52.486;13.432;2023-04-24T13:04:17;5.07;;;1.73;;
16472;SDS011;8347;52.486;13.432;2023-04-24T13:07:05;4.90;;;3.05;;
16472;SDS011;8347;52.486;13.432;2023-04-24T13:09:52;2.78;;;1.30;;
16472;SDS011;8347;52.486;13.432;2023-04-24T13:12:41;4.88;;;1.50;;
16472;SDS011;8347;52.486;13.432;2023-04-24T13:15:31;3.60;;;1.92;;
16472;SDS011;8347;52.486;13.432;2023-04-24T13:18:20;1.05;;;0.93;;
16472;SDS011;8347;52.486;13.432;2023-04-24T13:21:12;2.53;;;1.75;;
16472;SDS011;8347;52.486;13.432;2023-04-24T13:23:59;1.10;;;1.00;;
16472;SDS011;8347;52.486;13.432;2023-04-24T13:26:45;2.17;;;0.95;;
16472;SDS011;8347;52.486;13.432;2023-04-24T13:29:32;2.03;;;1.45;;
16472;SDS011;8347;52.486;13.432;2023-04-24T13:32:19;5.57;;;4.07;;
16472;SDS011;8347;52.486;13.432;2023-04-24T13:35:05;3.70;;;2.88;;
16472;SDS011;8347;52.486;13.432;2023-04-24T13:37:52;2.53;;;1.38;;
16472;SDS011;8347;52.486;13.432;2023-04-24T13:40:38;3.17;;;1.83;;
16472;SDS011;8347;52.486;13.432;2023-04-24T13:43:25;3.40;;;1.60;;
16472;SDS011;8347;52.486;13.432;2023-04-24T13:46:12;1.52;;;1.00;;
16472;SDS011;8347;52.486;13.432;2023-04-24T13:48:59;1.25;;;1.15;;
16472;SDS011;8347;52.486;13.432;2023-04-24T13:51:46;2.42;;;1.45;;
16472;SDS011;8347;52.486;13.432;2023-04-24T13:54:32;2.60;;;1.85;;
16472;SDS011;8347;52.486;13.432;2023-04-24T13:57:19;4.25;;;1.30;;
16472;SDS011;8347;52.486;13.432;2023-04-24T14:00:06;3.53;;;2.50;;
16472;SDS011;8347;52.486;13.432;2023-04-24T14:02:56;3.17;;;1.73;;
16472;SDS011;8347;52.486;13.432;2023-04-24T14:05:42;1.85;;;1.38;;
16472;SDS011;8347;52.486;13.432;2023-04-24T14:08:29;2.38;;;1.95;;
16472;SDS011;8347;52.486;13.432;2023-04-24T14:11:15;3.05;;;2.35;;
16472;SDS011;8347;52.486;13.432;2023-04-24T14:14:02;2.65;;;2.10;;
16472;SDS011;8347;52.486;13.432;2023-04-24T14:16:49;1.77;;;1.27;;
16472;SDS011;8347;52.486;13.432;2023-04-24T14:19:36;2.35;;;1.38;;
16472;SDS011;8347;52.486;13.432;2023-04-24T14:22:22;1.70;;;1.40;;
16472;SDS011;8347;52.486;13.432;2023-04-24T14:25:09;2.13;;;1.67;;
16472;SDS011;8347;52.486;13.432;2023-04-24T14:27:55;2.72;;;1.05;;
16472;SDS011;8347;52.486;13.432;2023-04-24T14:30:42;2.83;;;1.80;;
16472;SDS011;8347;52.486;13.432;2023-04-24T14:33:29;3.67;;;2.35;;
16472;SDS011;8347;52.486;13.432;2023-04-24T14:36:15;2.08;;;1.63;;
16472;SDS011;8347;52.486;13.432;2023-04-24T14:39:02;2.70;;;1.83;;
16472;SDS011;8347;52.486;13.432;2023-04-24T14:41:52;5.15;;;2.13;;
16472;SDS011;8347;52.486;13.432;2023-04-24T14:44:38;1.63;;;1.50;;
16472;SDS011;8347;52.486;13.432;2023-04-24T14:47:25;2.67;;;1.80;;
16472;SDS011;8347;52.486;13.432;2023-04-24T14:50:12;3.15;;;2.28;;
16472;SDS011;8347;52.486;13.432;2023-04-24T14:52:58;4.90;;;2.83;;
16472;SDS011;8347;52.486;13.432;2023-04-24T14:55:45;4.40;;;1.80;;
16472;SDS011;8347;52.486;13.432;2023-04-24T14:58:31;2.75;;;1.70;;
16472;SDS011;8347;52.486;13.432;2023-04-24T15:01:18;3.70;;;1.95;;
16472;SDS011;8347;52.486;13.432;2023-04-24T15:04:05;3.88;;;2.33;;
16472;SDS011;8347;52.486;13.432;2023-04-24T15:06:52;4.13;;;2.20;;
16472;SDS011;8347;52.486;13.432;2023-04-24T15:09:42;4.20;;;3.05;;
16472;SDS011;8347;52.486;13.432;2023-04-24T15:12:28;2.95;;;2.10;;
16472;SDS011;8347;52.486;13.432;2023-04-24T15:15:15;4.78;;;2.28;;
16472;SDS011;8347;52.486;13.432;2023-04-24T15:18:02;2.50;;;1.75;;
16472;SDS011;8347;52.486;13.432;2023-04-24T15:20:48;3.40;;;2.42;;
16472;SDS011;8347;52.486;13.432;2023-04-24T15:23:35;2.38;;;1.38;;
16472;SDS011;8347;52.486;13.432;2023-04-24T15:26:22;3.53;;;2.53;;
16472;SDS011;8347;52.486;13.432;2023-04-24T15:29:09;2.92;;;1.95;;
16472;SDS011;8347;52.486;13.432;2023-04-24T15:31:55;4.30;;;1.95;;
16472;SDS011;8347;52.486;13.432;2023-04-24T15:34:42;2.42;;;1.85;;
16472;SDS011;8347;52.486;13.432;2023-04-24T15:37:28;7.45;;;4.47;;
16472;SDS011;8347;52.486;13.432;2023-04-24T15:40:15;3.53;;;2.20;;
16472;SDS011;8347;52.486;13.432;2023-04-24T15:43:01;2.38;;;1.67;;
16472;SDS011;8347;52.486;13.432;2023-04-24T15:45:51;5.45;;;2.20;;
16472;SDS011;8347;52.486;13.432;2023-04-24T15:48:38;2.45;;;1.92;;
16472;SDS011;8347;52.486;13.432;2023-04-24T15:51:26;4.00;;;1.75;;
16472;SDS011;8347;52.486;13.432;2023-04-24T15:54:13;3.63;;;2.35;;
16472;SDS011;8347;52.486;13.432;2023-04-24T15:57:00;2.33;;;1.67;;
16472;SDS011;8347;52.486;13.432;2023-04-24T15:59:46;6.53;;;4.60;;
16472;SDS011;8347;52.486;13.432;2023-04-24T16:02:33;3.80;;;2.95;;
16472;SDS011;8347;52.486;13.432;2023-04-24T16:05:20;2.78;;;1.60;;
16472;SDS011;8347;52.486;13.432;2023-04-24T16:08:08;2.55;;;2.25;;
16472;SDS011;8347;52.486;13.432;2023-04-24T16:10:55;4.82;;;2.95;;
16472;SDS011;8347;52.486;13.432;2023-04-24T16:13:41;5.18;;;2.90;;
16472;SDS011;8347;52.486;13.432;2023-04-24T16:16:28;4.93;;;2.70;;
16472;SDS011;8347;52.486;13.432;2023-04-24T16:19:14;3.78;;;2.63;;
16472;SDS011;8347;52.486;13.432;2023-04-24T16:22:03;3.22;;;2.13;;
16472;SDS011;8347;52.486;13.432;2023-04-24T16:24:49;3.47;;;2.40;;
16472;SDS011;8347;52.486;13.432;2023-04-24T16:27:36;4.63;;;2.70;;
16472;SDS011;8347;52.486;13.432;2023-04-24T16:30:23;7.00;;;4.28;;
16472;SDS011;8347;52.486;13.432;2023-04-24T16:33:09;5.00;;;2.92;;
16472;SDS011;8347;52.486;13.432;2023-04-24T16:35:56;3.65;;;2.45;;
16472;SDS011;8347;52.486;13.432;2023-04-24T16:38:43;6.88;;;2.97;;
16472;SDS011;8347;52.486;13.432;2023-04-24T16:41:30;9.23;;;3.15;;
16472;SDS011;8347;52.486;13.432;2023-04-24T16:44:16;4.45;;;2.22;;
16472;SDS011;8347;52.486;13.432;2023-04-24T16:47:04;2.75;;;2.20;;
16472;SDS011;8347;52.486;13.432;2023-04-24T16:49:51;3.22;;;2.22;;
16472;SDS011;8347;52.486;13.432;2023-04-24T16:52:37;1.90;;;1.38;;
16472;SDS011;8347;52.486;13.432;2023-04-24T16:55:24;5.30;;;2.15;;
16472;SDS011;8347;52.486;13.432;2023-04-24T16:58:11;4.63;;;2.22;;
16472;SDS011;8347;52.486;13.432;2023-04-24T17:00:57;6.28;;;3.65;;
16472;SDS011;8347;52.486;13.432;2023-04-24T17:03:44;2.58;;;1.73;;
16472;SDS011;8347;52.486;13.432;2023-04-24T17:06:31;3.50;;;2.00;;